Terminal Aerodrome Forecast
Issued by NWS

Home | Current Version | Previous Version | Text Only | Print | Product List | Glossary Off
Versions: 1 2 3 4 5 6 7 8 9 10 11 12

000
FTUS43 KTOP 232300
TAFMHK
TAF
KMHK 232330Z 2400/2424 31011KT P6SM -RA OVC015
     FM240400 34012KT 4SM -SN BR OVC008
     FM241000 32013G20KT P6SM OVC009
     FM241500 32012KT P6SM OVC018
     FM242100 29010KT P6SM SCT025=

USA.gov is the U.S. government's official web portal to all federal, state and local government web resources and services.